Time;durP1;ratioP1;P1;durP2;ratioP2;P2;SDS_P1;SDS_P2;PMS_P1;PMS_P2;Temp;Humidity;BMP_temperature;BMP_pressure;BME280_temperature;BME280_humidity;BME280_pressure;Samples;Min_cycle;Max_cycle;Signal;HPM_P1;HPM_P2
2021/12/21 00:01:03;;;;;;;3.53;2.90;;;21.60;34.20;;;;;;5071419;28;20403;-69
2021/12/21 00:03:29;;;;;;;3.85;2.65;;;21.60;34.20;;;;;;5071368;28;20448;-69
2021/12/21 00:05:56;;;;;;;3.92;2.55;;;21.60;34.00;;;;;;5071347;28;20391;-69
2021/12/21 00:08:23;;;;;;;3.40;2.60;;;21.60;34.10;;;;;;5053557;28;20391;-68
2021/12/21 00:10:52;;;;;;;4.03;2.85;;;21.60;33.70;;;;;;5071321;28;20422;-69
2021/12/21 00:16:30;;;;;;;3.00;2.47;;;21.60;34.00;;;;;;5051771;28;20388;-69
2021/12/21 00:21:41;;;;;;;3.35;2.40;;;21.50;34.10;;;;;;5074833;28;20430;-69
2021/12/21 00:24:19;;;;;;;3.00;2.50;;;21.50;34.60;;;;;;5057131;28;20809;-69
2021/12/21 00:26:44;;;;;;;3.20;2.40;;;21.50;33.80;;;;;;5075217;28;20395;-69
2021/12/21 00:29:10;;;;;;;2.90;2.60;;;21.50;33.90;;;;;;5075137;28;20798;-69
2021/12/21 00:31:37;;;;;;;3.00;2.40;;;21.50;33.90;;;;;;5074924;28;20380;-69
2021/12/21 00:34:06;;;;;;;3.60;2.38;;;21.50;33.80;;;;;;5056494;28;20412;-69
2021/12/21 00:36:33;;;;;;;2.85;2.30;;;21.50;33.90;;;;;;5057094;28;20752;-68
2021/12/21 00:39:04;;;;;;;2.83;2.22;;;21.50;34.00;;;;;;5056933;28;20398;-68
2021/12/21 00:41:31;;;;;;;3.25;2.47;;;21.50;33.90;;;;;;5074809;28;20380;-68
2021/12/21 00:43:57;;;;;;;2.50;1.93;;;21.50;33.80;;;;;;5074678;28;20403;-69
2021/12/21 00:46:23;;;;;;;3.30;2.40;;;21.50;33.80;;;;;;5074650;28;20890;-69
2021/12/21 00:48:52;;;;;;;2.70;2.20;;;21.50;33.90;;;;;;5074801;28;20383;-68
2021/12/21 00:51:21;;;;;;;3.10;2.25;;;21.50;33.90;;;;;;5074607;28;20379;-69
2021/12/21 00:53:46;;;;;;;3.63;2.33;;;21.50;33.80;;;;;;5074031;28;20456;-69
2021/12/21 00:56:12;;;;;;;2.77;2.20;;;21.50;33.60;;;;;;5074578;28;20471;-69
2021/12/21 00:58:38;;;;;;;2.97;2.17;;;21.50;33.40;;;;;;5074539;28;20391;-69
2021/12/21 01:01:06;;;;;;;2.70;1.90;;;21.50;33.30;;;;;;5074538;28;20384;-69
2021/12/21 01:03:38;;;;;;;3.58;2.08;;;21.50;33.40;;;;;;5074157;28;20388;-69
2021/12/21 01:08:41;;;;;;;2.55;1.90;;;21.50;33.40;;;;;;5074370;28;20384;-69
2021/12/21 01:11:16;;;;;;;2.53;2.03;;;21.50;33.30;;;;;;5074233;28;20376;-68
2021/12/21 01:13:53;;;;;;;2.97;2.10;;;21.50;33.20;;;;;;5074010;28;20903;-69
2021/12/21 01:16:26;;;;;;;2.63;2.00;;;21.50;33.20;;;;;;5074103;28;20376;-68
2021/12/21 01:19:38;;;;;;;2.33;1.83;;;21.50;33.50;;;;;;5074244;28;20406;-69
2021/12/21 01:22:04;;;;;;;3.00;2.08;;;21.50;33.40;;;;;;5065532;28;20387;-69
2021/12/21 01:29:44;;;;;;;2.55;1.90;;;21.40;33.50;;;;;;5074054;28;20727;-69
2021/12/21 01:34:55;;;;;;;2.40;1.90;;;21.40;33.30;;;;;;5073597;28;20426;-68
2021/12/21 01:37:41;;;;;;;3.30;1.90;;;21.40;33.20;;;;;;5073631;28;21000;-68
2021/12/21 01:50:53;;;;;;;2.20;1.60;;;21.30;33.20;;;;;;5073627;28;20433;-69
2021/12/21 01:53:19;;;;;;;2.93;1.73;;;21.40;33.20;;;;;;5073574;28;20512;-69
2021/12/21 01:55:45;;;;;;;2.58;1.50;;;21.30;33.20;;;;;;5055100;28;20851;-69
2021/12/21 01:58:10;;;;;;;2.33;1.55;;;21.30;33.40;;;;;;5073383;28;20445;-69
2021/12/21 02:00:38;;;;;;;2.58;1.63;;;21.30;33.20;;;;;;5073364;28;20479;-69
2021/12/21 02:03:05;;;;;;;2.20;1.60;;;21.30;33.10;;;;;;5073312;28;20392;-69
2021/12/21 02:05:31;;;;;;;2.10;1.60;;;21.30;33.10;;;;;;5073385;28;20388;-69
2021/12/21 02:07:57;;;;;;;1.83;1.50;;;21.30;33.20;;;;;;5072582;28;20419;-69
2021/12/21 02:10:23;;;;;;;2.30;1.70;;;21.30;33.20;;;;;;5073150;28;20485;-69
2021/12/21 02:12:49;;;;;;;2.22;1.60;;;21.30;33.10;;;;;;5073166;28;20392;-68
2021/12/21 02:15:15;;;;;;;2.15;1.50;;;21.30;33.10;;;;;;5073113;28;20387;-68
2021/12/21 02:30:38;;;;;;;2.35;1.58;;;21.30;32.90;;;;;;5072837;28;20434;-68
2021/12/21 02:33:04;;;;;;;1.70;1.40;;;21.30;32.90;;;;;;5072244;28;20403;-69
2021/12/21 02:35:30;;;;;;;2.10;1.60;;;21.30;32.80;;;;;;5072780;28;20388;-68
2021/12/21 02:37:56;;;;;;;2.03;1.60;;;21.30;32.80;;;;;;5072116;28;20887;-69
2021/12/21 02:40:21;;;;;;;2.20;1.50;;;21.30;32.70;;;;;;5054602;28;20464;-69
2021/12/21 02:42:47;;;;;;;1.85;1.30;;;21.30;32.60;;;;;;5072389;28;20737;-69
2021/12/21 02:45:13;;;;;;;2.10;1.50;;;21.30;32.70;;;;;;5072494;28;20470;-69
2021/12/21 02:47:39;;;;;;;1.95;1.30;;;21.30;32.80;;;;;;5054195;28;20396;-68
2021/12/21 02:50:05;;;;;;;2.10;1.37;;;21.30;32.80;;;;;;5071495;28;20430;-69
2021/12/21 02:52:33;;;;;;;2.35;1.50;;;21.30;32.80;;;;;;5072008;28;20425;-69
2021/12/21 02:54:59;;;;;;;2.00;1.30;;;21.30;32.90;;;;;;5072065;28;20416;-69
2021/12/21 02:57:25;;;;;;;2.00;1.45;;;21.30;32.90;;;;;;5072349;28;20384;-69
2021/12/21 02:59:51;;;;;;;2.22;1.40;;;21.30;33.00;;;;;;5071760;28;20414;-68
2021/12/21 03:02:17;;;;;;;1.80;1.30;;;21.20;32.90;;;;;;5072185;28;20848;-68
2021/12/21 03:04:45;;;;;;;2.40;1.40;;;21.20;32.70;;;;;;5072188;28;20883;-68
2021/12/21 03:09:45;;;;;;;2.03;1.30;;;21.30;32.70;;;;;;5071854;28;20407;-69
2021/12/21 03:14:46;;;;;;;1.90;1.40;;;21.20;32.60;;;;;;5071917;28;20433;-68
2021/12/21 03:17:13;;;;;;;1.90;1.23;;;21.30;32.60;;;;;;5071813;28;20732;-69
2021/12/21 03:19:38;;;;;;;1.77;1.20;;;21.20;32.60;;;;;;5053787;28;20384;-69
2021/12/21 03:22:06;;;;;;;2.38;1.30;;;21.20;32.80;;;;;;5053557;28;20721;-68
2021/12/21 03:24:31;;;;;;;2.00;1.27;;;21.20;33.30;;;;;;5071875;28;20388;-68
2021/12/21 03:26:57;;;;;;;1.70;1.10;;;21.20;32.60;;;;;;5053757;28;20430;-67
2021/12/21 03:29:23;;;;;;;1.60;1.10;;;21.10;32.90;;;;;;5071698;28;20601;-68
2021/12/21 03:31:49;;;;;;;2.10;1.13;;;21.00;33.00;;;;;;5071449;28;20951;-68
2021/12/21 03:34:15;;;;;;;1.55;1.20;;;20.90;33.20;;;;;;5071256;28;20418;-69
2021/12/21 03:36:41;;;;;;;2.28;1.33;;;20.80;33.30;;;;;;5071517;28;20390;-69
2021/12/21 03:39:09;;;;;;;1.93;1.10;;;20.90;33.10;;;;;;5071607;28;20403;-69
2021/12/21 03:41:45;;;;;;;2.28;1.17;;;20.80;32.80;;;;;;5071366;28;20399;-69
2021/12/21 03:44:11;;;;;;;1.55;1.10;;;20.80;32.90;;;;;;5053326;28;20411;-68
2021/12/21 03:46:44;;;;;;;1.77;1.20;;;20.90;33.00;;;;;;5053444;28;20641;-68
2021/12/21 03:49:40;;;;;;;1.80;1.15;;;20.90;33.10;;;;;;5070910;28;20479;-68
2021/12/21 03:51:56;;;;;;;1.80;1.23;;;21.00;32.90;;;;;;5070781;28;20395;-69
2021/12/21 03:54:23;;;;;;;1.52;1.15;;;21.00;32.70;;;;;;5053359;28;20419;-69
2021/12/21 03:56:50;;;;;;;2.08;1.20;;;21.00;32.50;;;;;;5053498;28;20391;-68
2021/12/21 03:59:16;;;;;;;2.45;1.35;;;21.00;32.50;;;;;;5071329;28;20437;-68
2021/12/21 04:01:42;;;;;;;2.22;1.30;;;21.00;32.30;;;;;;5053103;28;20914;-69
2021/12/21 04:04:08;;;;;;;1.92;1.30;;;21.00;32.70;;;;;;5070907;28;20388;-68
2021/12/21 04:06:35;;;;;;;2.92;1.70;;;21.00;32.80;;;;;;5070627;28;20878;-68
2021/12/21 04:09:03;;;;;;;3.03;1.65;;;21.00;32.20;;;;;;5070900;28;20419;-69
2021/12/21 04:11:28;;;;;;;4.40;1.73;;;21.10;32.70;;;;;;5053127;28;20445;-68
2021/12/21 04:13:54;;;;;;;3.70;2.00;;;21.20;31.90;;;;;;5070677;28;20798;-68
2021/12/21 04:16:20;;;;;;;5.03;2.28;;;21.20;32.40;;;;;;5070977;28;20398;-69
2021/12/21 04:18:45;;;;;;;6.37;3.07;;;21.30;33.30;;;;;;5053315;28;20384;-69
2021/12/21 04:21:14;;;;;;;6.22;2.50;;;21.30;36.00;;;;;;5053208;28;20400;-68
2021/12/21 04:23:41;;;;;;;5.18;2.80;;;21.40;35.40;;;;;;5053258;28;20376;-68
2021/12/21 04:26:08;;;;;;;5.20;2.30;;;21.40;34.90;;;;;;5070848;28;20426;-69
2021/12/21 04:28:34;;;;;;;3.88;2.20;;;21.50;35.50;;;;;;5071201;28;20380;-69
2021/12/21 04:31:00;;;;;;;5.47;2.20;;;21.50;35.00;;;;;;5050469;28;20518;-69
2021/12/21 04:33:26;;;;;;;2.67;1.90;;;21.50;34.80;;;;;;5082983;28;20425;-69
2021/12/21 04:35:52;;;;;;;3.70;2.10;;;21.50;34.80;;;;;;5090861;28;20750;-68
2021/12/21 04:38:22;;;;;;;4.33;2.17;;;21.50;34.10;;;;;;5091107;28;20960;-69
2021/12/21 04:40:58;;;;;;;3.70;2.30;;;21.50;34.20;;;;;;5091154;28;20385;-69
2021/12/21 04:43:24;;;;;;;5.65;2.30;;;21.50;34.60;;;;;;5090922;28;20406;-68
2021/12/21 04:45:50;;;;;;;3.65;2.10;;;21.50;34.50;;;;;;5072694;28;20446;-68
2021/12/21 04:48:16;;;;;;;4.15;2.28;;;21.60;34.60;;;;;;5073596;28;20439;-68
2021/12/21 04:50:43;;;;;;;4.35;2.28;;;21.50;33.90;;;;;;5091291;28;20469;-68
2021/12/21 04:53:08;;;;;;;8.50;2.33;;;21.30;33.50;;;;;;5090725;28;20739;-67
2021/12/21 04:55:35;;;;;;;4.45;2.25;;;21.30;34.00;;;;;;5090975;28;20439;-68
2021/12/21 04:58:01;;;;;;;5.88;2.30;;;21.20;34.00;;;;;;5090758;28;20410;-69
2021/12/21 05:00:27;;;;;;;6.70;2.33;;;21.20;34.20;;;;;;5093587;28;20483;-68
2021/12/21 05:02:52;;;;;;;5.95;2.40;;;21.30;34.50;;;;;;5094718;28;20374;-68
2021/12/21 05:05:18;;;;;;;4.70;2.40;;;21.30;33.40;;;;;;5094419;28;20394;-69
2021/12/21 05:07:48;;;;;;;5.38;2.10;;;21.30;34.20;;;;;;5094285;28;20382;-68
2021/12/21 05:10:14;;;;;;;5.00;2.33;;;21.30;34.20;;;;;;5075989;28;20406;-69
2021/12/21 05:12:40;;;;;;;6.63;2.50;;;21.40;34.20;;;;;;5094115;28;20390;-69
2021/12/21 05:15:07;;;;;;;5.83;2.70;;;21.40;33.70;;;;;;5094260;28;20420;-68
2021/12/21 05:17:33;;;;;;;3.95;2.80;;;21.30;33.90;;;;;;5094322;28;20397;-68
2021/12/21 05:19:58;;;;;;;3.58;2.30;;;21.30;33.60;;;;;;5093790;28;20394;-68
2021/12/21 05:22:25;;;;;;;5.30;2.30;;;21.30;33.40;;;;;;5094218;28;20382;-68
2021/12/21 05:24:53;;;;;;;10.70;2.50;;;21.30;33.20;;;;;;5094232;28;20413;-68
2021/12/21 05:27:20;;;;;;;6.00;2.60;;;21.30;33.40;;;;;;5094183;28;20405;-68
2021/12/21 05:29:45;;;;;;;7.25;2.40;;;21.30;33.80;;;;;;5094041;28;20446;-68
2021/12/21 05:32:12;;;;;;;6.38;2.40;;;21.30;33.40;;;;;;5093765;28;20382;-68
2021/12/21 05:34:38;;;;;;;6.45;2.42;;;21.30;33.40;;;;;;5094057;28;20418;-68
2021/12/21 05:37:06;;;;;;;5.43;2.30;;;21.40;33.30;;;;;;5093902;28;20381;-68
2021/12/21 05:39:42;;;;;;;4.60;2.20;;;21.40;33.10;;;;;;5093840;28;20401;-68
2021/12/21 05:42:08;;;;;;;4.88;2.30;;;21.40;33.00;;;;;;5093253;28;20405;-69
2021/12/21 05:44:33;;;;;;;4.80;2.40;;;21.40;32.90;;;;;;5093886;28;20382;-69
2021/12/21 05:46:59;;;;;;;4.47;2.90;;;21.40;32.70;;;;;;5093785;28;20473;-68
2021/12/21 05:49:25;;;;;;;4.50;2.90;;;21.40;32.40;;;;;;5093751;28;20390;-68
2021/12/21 05:51:51;;;;;;;5.70;2.65;;;21.30;32.40;;;;;;5093368;28;20394;-68
2021/12/21 05:54:21;;;;;;;7.07;3.03;;;21.30;32.60;;;;;;5093163;28;20425;-68
2021/12/21 05:56:47;;;;;;;4.50;2.70;;;21.30;32.60;;;;;;5093766;28;20379;-68
2021/12/21 05:59:13;;;;;;;4.20;2.80;;;21.20;32.50;;;;;;5093661;28;20919;-68
2021/12/21 06:01:38;;;;;;;4.93;2.95;;;21.20;32.40;;;;;;5093656;28;20378;-68
2021/12/21 06:04:05;;;;;;;5.20;2.90;;;21.30;32.50;;;;;;5093090;28;20896;-68
2021/12/21 06:06:32;;;;;;;5.30;3.25;;;21.20;32.30;;;;;;5086750;28;20387;-69
2021/12/21 06:09:00;;;;;;;4.70;3.50;;;21.20;32.30;;;;;;5072687;28;20398;-68
2021/12/21 06:11:26;;;;;;;5.97;4.23;;;21.20;32.30;;;;;;5071191;28;20457;-69
2021/12/21 06:27:10;;;;;;;5.63;4.28;;;21.40;33.30;;;;;;5092962;28;20385;-68
2021/12/21 06:29:37;;;;;;;6.25;4.55;;;21.50;33.20;;;;;;5092740;28;20484;-70
2021/12/21 06:32:03;;;;;;;5.75;4.20;;;21.50;33.00;;;;;;5092036;28;20388;-69
2021/12/21 06:34:29;;;;;;;6.07;4.28;;;21.60;32.90;;;;;;5092356;28;20774;-69
2021/12/21 06:36:54;;;;;;;6.13;4.60;;;21.50;32.50;;;;;;5092177;28;20435;-69
2021/12/21 06:39:20;;;;;;;7.60;4.47;;;21.50;33.40;;;;;;5092471;28;20390;-69
2021/12/21 06:41:46;;;;;;;6.25;4.05;;;21.60;33.40;;;;;;5073619;28;20394;-70
2021/12/21 06:44:14;;;;;;;6.17;4.20;;;21.60;33.20;;;;;;5078964;28;20396;-70
2021/12/21 06:51:52;;;;;;;6.20;3.80;;;21.50;32.90;;;;;;5070341;28;20907;-68
2021/12/21 06:54:18;;;;;;;5.90;3.90;;;21.50;32.40;;;;;;5052157;28;20466;-69
2021/12/21 06:56:44;;;;;;;5.32;3.90;;;21.50;32.60;;;;;;5069731;28;20388;-69
2021/12/21 06:59:10;;;;;;;4.90;3.73;;;21.50;32.90;;;;;;5070224;28;20410;-69
2021/12/21 07:01:38;;;;;;;6.53;3.78;;;21.50;32.90;;;;;;5070267;28;20384;-69
2021/12/21 07:04:06;;;;;;;8.50;4.10;;;21.60;34.70;;;;;;5070895;28;20840;-69
2021/12/21 07:06:35;;;;;;;4.50;3.40;;;21.60;33.80;;;;;;5071156;28;20379;-70
2021/12/21 07:09:08;;;;;;;6.70;4.00;;;21.60;34.00;;;;;;5071443;28;20396;-69
2021/12/21 07:19:30;;;;;;;4.80;3.63;;;21.50;33.10;;;;;;5071493;28;20386;-68
2021/12/21 07:21:56;;;;;;;4.88;3.38;;;21.50;33.00;;;;;;5071102;28;20380;-69
2021/12/21 07:24:23;;;;;;;5.28;3.65;;;21.50;32.90;;;;;;5070178;28;20395;-69
2021/12/21 07:26:48;;;;;;;6.35;3.70;;;21.40;32.90;;;;;;5071373;28;20433;-69
2021/12/21 07:29:14;;;;;;;6.50;3.67;;;21.40;32.90;;;;;;5071201;28;20395;-69
2021/12/21 07:31:40;;;;;;;8.15;3.75;;;21.40;33.00;;;;;;5071199;28;20383;-69
2021/12/21 07:34:06;;;;;;;5.75;3.70;;;21.40;33.00;;;;;;5070434;28;20399;-69
2021/12/21 07:36:32;;;;;;;6.23;3.60;;;21.40;32.80;;;;;;5071217;28;20867;-69
2021/12/21 07:38:59;;;;;;;4.63;3.38;;;21.30;33.30;;;;;;5071073;28;20962;-69
2021/12/21 07:41:25;;;;;;;5.32;3.88;;;21.30;32.90;;;;;;5071276;28;20404;-69
2021/12/21 07:43:51;;;;;;;6.20;3.80;;;21.30;32.80;;;;;;5071008;28;20872;-68
2021/12/21 07:46:18;;;;;;;5.65;3.50;;;21.40;32.40;;;;;;5070815;28;20450;-69
2021/12/21 07:48:44;;;;;;;5.55;3.63;;;21.40;32.60;;;;;;5070955;28;20387;-69
2021/12/21 07:51:10;;;;;;;5.40;3.43;;;21.40;32.60;;;;;;5070931;28;20402;-69
2021/12/21 07:53:36;;;;;;;5.80;3.45;;;21.40;32.30;;;;;;5070530;28;20810;-69
2021/12/21 07:56:03;;;;;;;6.95;4.03;;;21.40;32.50;;;;;;5070480;28;20383;-70
2021/12/21 07:58:30;;;;;;;6.33;3.47;;;21.40;32.50;;;;;;5070683;28;20390;-69
2021/12/21 08:00:57;;;;;;;6.20;4.00;;;21.40;32.60;;;;;;5070813;28;20416;-67
2021/12/21 08:03:23;;;;;;;6.15;3.70;;;21.40;32.60;;;;;;5070721;28;20384;-70
2021/12/21 08:05:52;;;;;;;7.88;3.42;;;21.40;33.10;;;;;;5070760;28;20479;-69
2021/12/21 08:08:21;;;;;;;4.55;3.55;;;21.40;33.10;;;;;;5052580;28;20391;-69
2021/12/21 08:11:11;;;;;;;4.43;3.53;;;21.40;33.20;;;;;;5070718;28;20390;-70
2021/12/21 08:13:38;;;;;;;4.95;3.83;;;21.40;33.00;;;;;;5070577;28;20403;-67
2021/12/21 08:16:04;;;;;;;5.82;4.00;;;21.40;32.70;;;;;;5070396;28;20408;-69
2021/12/21 08:18:30;;;;;;;5.82;3.90;;;21.40;32.60;;;;;;5052718;28;20722;-68
2021/12/21 08:20:57;;;;;;;4.95;4.10;;;21.40;32.60;;;;;;5070939;28;20441;-69
2021/12/21 08:23:22;;;;;;;5.78;3.90;;;21.40;32.50;;;;;;5070744;28;20383;-70
2021/12/21 08:25:48;;;;;;;5.43;3.95;;;21.50;32.50;;;;;;5070551;28;20384;-69
2021/12/21 08:28:14;;;;;;;9.33;4.80;;;21.50;33.10;;;;;;5052151;28;20402;-70
2021/12/21 08:30:39;;;;;;;10.60;5.20;;;21.50;32.40;;;;;;5070699;28;20864;-69
2021/12/21 08:33:06;;;;;;;7.70;4.60;;;21.50;32.20;;;;;;5070476;28;20388;-69
2021/12/21 08:35:32;;;;;;;8.33;4.27;;;21.60;32.10;;;;;;5055473;28;20391;-70
2021/12/21 08:38:06;;;;;;;7.10;4.28;;;21.70;32.20;;;;;;5061932;28;20417;-70
2021/12/21 08:40:40;;;;;;;8.40;4.20;;;21.70;31.90;;;;;;5036288;28;20397;-69
2021/12/21 08:43:12;;;;;;;7.85;4.20;;;21.70;32.10;;;;;;5068629;28;20478;-71
2021/12/21 08:45:39;;;;;;;7.82;4.10;;;21.80;32.10;;;;;;5056393;28;20395;-70
2021/12/21 08:48:06;;;;;;;6.72;3.72;;;21.80;32.00;;;;;;5074151;28;20848;-69
2021/12/21 08:50:33;;;;;;;8.90;3.88;;;21.80;32.10;;;;;;5074248;28;20403;-69
2021/12/21 08:52:59;;;;;;;9.50;3.80;;;21.80;31.90;;;;;;5074131;28;20380;-70
2021/12/21 08:55:25;;;;;;;9.93;4.38;;;21.80;31.90;;;;;;5074074;28;20516;-70
2021/12/21 08:57:51;;;;;;;7.13;3.88;;;21.80;31.90;;;;;;5073642;28;20379;-70
2021/12/21 09:00:17;;;;;;;7.50;3.67;;;21.80;31.30;;;;;;5073314;28;20899;-69
2021/12/21 09:02:43;;;;;;;5.90;3.78;;;21.80;31.60;;;;;;5074155;28;20811;-70
2021/12/21 09:05:19;;;;;;;5.25;3.65;;;21.80;31.70;;;;;;5073943;28;20400;-70
2021/12/21 09:07:47;;;;;;;6.60;3.90;;;21.80;31.60;;;;;;5074401;28;20441;-70
2021/12/21 09:10:16;;;;;;;6.03;3.70;;;21.80;31.70;;;;;;5055526;28;20883;-70
2021/12/21 09:12:42;;;;;;;6.07;3.40;;;21.90;31.50;;;;;;5055659;28;20391;-69
2021/12/21 09:15:09;;;;;;;7.88;3.70;;;21.90;31.70;;;;;;5073612;28;20899;-70
2021/12/21 09:17:35;;;;;;;6.13;3.67;;;21.90;31.70;;;;;;5073578;28;20808;-69
2021/12/21 09:20:01;;;;;;;7.20;3.60;;;21.80;31.50;;;;;;5073363;28;20809;-69
2021/12/21 09:22:26;;;;;;;6.37;3.50;;;21.90;31.50;;;;;;5073394;28;20392;-69
2021/12/21 09:24:52;;;;;;;7.25;3.70;;;21.90;31.60;;;;;;5073379;28;20395;-70
2021/12/21 09:27:19;;;;;;;5.85;3.20;;;21.90;31.60;;;;;;5055113;28;20399;-70
2021/12/21 09:29:45;;;;;;;6.20;3.65;;;21.90;31.90;;;;;;5073532;28;20419;-70
2021/12/21 09:32:13;;;;;;;6.93;3.47;;;22.00;32.90;;;;;;5073144;28;20453;-70
2021/12/21 09:34:44;;;;;;;6.75;3.22;;;22.00;33.80;;;;;;5055213;28;20476;-69
2021/12/21 09:37:15;;;;;;;6.13;3.47;;;22.00;32.70;;;;;;5073423;28;20380;-70
2021/12/21 09:39:47;;;;;;;7.18;3.63;;;22.00;32.50;;;;;;5073915;28;20482;-70
2021/12/21 09:42:16;;;;;;;8.52;3.55;;;22.00;32.70;;;;;;5072665;28;20411;-70
2021/12/21 09:44:42;;;;;;;7.28;3.40;;;22.10;33.20;;;;;;5073062;28;20934;-70
2021/12/21 09:47:11;;;;;;;21.00;7.65;;;22.20;32.80;;;;;;5051593;28;20475;-70
2021/12/21 09:49:38;;;;;;;29.83;10.30;;;22.20;33.50;;;;;;5053116;28;20505;-69
2021/12/21 09:52:08;;;;;;;19.33;7.03;;;22.30;33.00;;;;;;5052939;28;20392;-69
2021/12/21 09:54:35;;;;;;;15.95;6.13;;;22.30;32.90;;;;;;5035030;28;20417;-70
2021/12/21 09:57:01;;;;;;;19.05;5.80;;;22.30;32.60;;;;;;5052716;28;20414;-70
2021/12/21 09:59:27;;;;;;;10.83;5.10;;;22.30;32.40;;;;;;5052990;28;20504;-70
2021/12/21 10:01:56;;;;;;;16.17;5.40;;;22.20;32.30;;;;;;5053083;28;20390;-70
2021/12/21 10:04:22;;;;;;;11.93;5.13;;;22.30;32.20;;;;;;5051033;28;20480;-70
2021/12/21 10:06:51;;;;;;;10.23;4.85;;;22.20;32.00;;;;;;5052989;28;20390;-71
2021/12/21 10:09:21;;;;;;;12.15;4.90;;;22.30;32.10;;;;;;5052721;28;20762;-70
2021/12/21 10:11:48;;;;;;;11.85;5.10;;;22.30;32.40;;;;;;5052896;28;20389;-70
2021/12/21 10:14:16;;;;;;;10.68;4.40;;;22.30;32.30;;;;;;5052105;28;20417;-71
2021/12/21 10:16:43;;;;;;;11.85;4.78;;;22.30;32.40;;;;;;5034369;28;20389;-71
2021/12/21 10:19:19;;;;;;;11.43;4.47;;;22.30;32.30;;;;;;5031153;28;20752;-70
2021/12/21 10:21:46;;;;;;;10.45;4.55;;;22.30;32.20;;;;;;5023538;28;20453;-70
2021/12/21 10:24:23;;;;;;;9.65;4.28;;;22.30;32.10;;;;;;5042093;28;20395;-70
2021/12/21 10:26:50;;;;;;;9.00;4.10;;;22.30;32.00;;;;;;5038223;28;20885;-70
2021/12/21 10:29:16;;;;;;;9.70;4.18;;;22.30;32.10;;;;;;5042345;28;20385;-69
2021/12/21 10:31:45;;;;;;;9.45;3.65;;;22.30;31.90;;;;;;5023628;28;20438;-70
2021/12/21 10:34:16;;;;;;;10.82;4.00;;;22.30;32.00;;;;;;5040268;28;20425;-70
2021/12/21 10:36:45;;;;;;;8.13;3.75;;;22.30;32.00;;;;;;5039018;28;20383;-71
2021/12/21 10:39:31;;;;;;;7.47;3.40;;;22.30;32.20;;;;;;5038768;28;20395;-70
2021/12/21 10:42:00;;;;;;;7.38;3.60;;;22.30;32.20;;;;;;5024641;28;20739;-70
2021/12/21 10:44:26;;;;;;;6.93;3.40;;;22.40;32.60;;;;;;5047751;28;20856;-70
2021/12/21 10:46:54;;;;;;;7.15;3.28;;;22.40;32.50;;;;;;5041729;28;20472;-70
2021/12/21 10:49:23;;;;;;;7.78;3.30;;;22.50;32.30;;;;;;5042489;28;20402;-70
2021/12/21 10:51:57;;;;;;;5.25;3.03;;;22.50;32.50;;;;;;5039739;28;20422;-70
2021/12/21 10:54:35;;;;;;;5.47;3.03;;;22.50;32.30;;;;;;5038789;28;20447;-70
2021/12/21 10:57:18;;;;;;;5.85;3.03;;;22.50;32.30;;;;;;5051835;28;20470;-69
2021/12/21 10:59:47;;;;;;;6.90;2.95;;;22.50;32.30;;;;;;5051923;28;20382;-70
2021/12/21 11:02:28;;;;;;;8.55;2.90;;;22.50;32.10;;;;;;5051509;28;20389;-68
2021/12/21 11:04:59;;;;;;;6.65;2.70;;;22.50;32.10;;;;;;5051734;28;20473;-68
2021/12/21 11:10:12;;;;;;;5.40;2.70;;;22.50;32.00;;;;;;5052067;28;20862;-69
2021/12/21 11:12:59;;;;;;;5.93;2.60;;;22.50;31.80;;;;;;5051302;28;20443;-68
2021/12/21 11:15:30;;;;;;;5.50;2.60;;;22.50;31.80;;;;;;5051385;28;20463;-69
2021/12/21 11:17:58;;;;;;;5.07;2.40;;;22.50;31.80;;;;;;5050318;28;20389;-69
2021/12/21 11:20:24;;;;;;;3.63;2.30;;;22.50;31.80;;;;;;5050964;28;20424;-68
2021/12/21 11:22:52;;;;;;;5.53;2.40;;;22.50;31.80;;;;;;5050093;28;20467;-69
2021/12/21 11:25:19;;;;;;;3.97;2.13;;;22.50;31.70;;;;;;5048847;28;20809;-68
2021/12/21 11:27:45;;;;;;;4.77;2.23;;;22.50;31.50;;;;;;5050476;28;20433;-68
2021/12/21 11:30:14;;;;;;;7.17;2.40;;;22.50;31.60;;;;;;5052420;28;20432;-68
2021/12/21 11:32:44;;;;;;;6.30;2.40;;;22.50;31.60;;;;;;5052429;28;20480;-68
2021/12/21 11:37:43;;;;;;;5.10;2.50;;;22.50;31.60;;;;;;5053087;28;20424;-70
2021/12/21 11:40:14;;;;;;;3.83;2.40;;;22.40;31.60;;;;;;5050607;28;20481;-68
2021/12/21 11:42:52;;;;;;;5.75;2.20;;;22.40;31.50;;;;;;5060228;28;20403;-68
2021/12/21 11:45:23;;;;;;;3.37;2.23;;;22.40;31.40;;;;;;5071952;28;20431;-69
2021/12/21 11:48:11;;;;;;;3.33;2.20;;;22.40;31.50;;;;;;5073410;28;20885;-68
2021/12/21 11:50:40;;;;;;;3.95;2.25;;;22.40;31.30;;;;;;5055304;28;20471;-68
2021/12/21 11:53:08;;;;;;;5.15;2.20;;;22.40;31.30;;;;;;5070743;28;20911;-68
2021/12/21 11:55:39;;;;;;;3.67;2.10;;;22.40;31.20;;;;;;5071307;28;20399;-69
2021/12/21 11:58:17;;;;;;;3.33;2.20;;;22.40;31.20;;;;;;5070718;28;20387;-69
2021/12/21 12:00:56;;;;;;;3.80;2.22;;;22.40;31.20;;;;;;5067016;28;20774;-68
2021/12/21 12:03:24;;;;;;;3.60;2.10;;;22.50;31.20;;;;;;5061868;28;20392;-68
2021/12/21 12:06:14;;;;;;;3.78;2.22;;;22.50;31.30;;;;;;5071022;28;20387;-68
2021/12/21 12:08:46;;;;;;;3.50;2.17;;;22.50;31.20;;;;;;5070176;28;20470;-68
2021/12/21 12:11:24;;;;;;;3.47;1.90;;;22.50;31.10;;;;;;5070614;28;20392;-68
2021/12/21 12:14:07;;;;;;;3.05;2.03;;;22.50;31.00;;;;;;5070618;28;20416;-68
2021/12/21 12:16:53;;;;;;;3.42;2.00;;;22.60;31.00;;;;;;5070205;28;20453;-68
2021/12/21 12:19:22;;;;;;;3.70;2.15;;;22.60;30.90;;;;;;5070464;28;20384;-68
2021/12/21 12:21:55;;;;;;;4.47;2.45;;;22.50;30.90;;;;;;5070676;28;20387;-68
2021/12/21 12:24:22;;;;;;;3.50;2.27;;;22.50;30.70;;;;;;5070278;28;20467;-68
2021/12/21 12:26:58;;;;;;;5.78;2.22;;;22.60;30.80;;;;;;5070840;28;20386;-67
2021/12/21 12:29:25;;;;;;;3.60;2.28;;;22.60;30.90;;;;;;5052777;28;20516;-68
2021/12/21 12:32:06;;;;;;;5.53;2.38;;;22.70;31.00;;;;;;5058974;28;20389;-67
2021/12/21 12:34:38;;;;;;;5.60;2.10;;;22.70;31.00;;;;;;5068769;28;20942;-68
2021/12/21 12:37:24;;;;;;;4.93;2.17;;;22.70;31.30;;;;;;5066312;28;20383;-68
2021/12/21 12:39:55;;;;;;;4.28;2.10;;;22.70;31.20;;;;;;5068184;28;20925;-68
2021/12/21 12:42:23;;;;;;;6.25;2.47;;;22.70;31.20;;;;;;5044506;28;20475;-68
2021/12/21 12:45:01;;;;;;;4.72;2.20;;;22.70;31.20;;;;;;5038621;28;20405;-68
2021/12/21 12:47:27;;;;;;;3.25;2.10;;;22.80;31.10;;;;;;5029681;28;20436;-68
2021/12/21 12:49:54;;;;;;;4.50;2.17;;;22.80;31.20;;;;;;5050251;28;20397;-68
2021/12/21 12:52:28;;;;;;;3.67;2.27;;;22.80;31.10;;;;;;5049674;28;20397;-68
2021/12/21 12:55:12;;;;;;;4.72;2.40;;;22.80;31.10;;;;;;5049528;28;20413;-68
2021/12/21 12:57:40;;;;;;;4.30;2.22;;;22.90;31.20;;;;;;5047966;28;20476;-69
2021/12/21 13:00:25;;;;;;;3.53;2.30;;;22.90;31.10;;;;;;5046629;28;20448;-68
2021/12/21 13:03:09;;;;;;;3.35;2.33;;;22.90;31.10;;;;;;5044509;28;20401;-68
2021/12/21 13:05:41;;;;;;;3.22;2.10;;;22.90;31.10;;;;;;5049181;28;20385;-68
2021/12/21 13:08:13;;;;;;;3.72;2.35;;;22.90;31.10;;;;;;5048332;28;20492;-69
2021/12/21 13:10:45;;;;;;;3.72;2.35;;;22.90;31.10;;;;;;5046380;28;20485;-69
2021/12/21 13:13:11;;;;;;;4.30;1.90;;;23.00;31.00;;;;;;5048261;28;20402;-69
2021/12/21 13:15:43;;;;;;;4.90;2.40;;;23.00;31.10;;;;;;5044430;28;20397;-69
2021/12/21 13:18:17;;;;;;;3.65;2.05;;;23.00;31.10;;;;;;5048031;28;20897;-68
2021/12/21 13:20:45;;;;;;;3.13;2.10;;;23.00;31.10;;;;;;5045875;28;20410;-68
2021/12/21 13:23:20;;;;;;;4.07;2.10;;;23.00;31.00;;;;;;5052809;28;20428;-68
2021/12/21 13:26:00;;;;;;;3.35;2.30;;;23.10;31.60;;;;;;5051695;28;20397;-68
2021/12/21 13:28:31;;;;;;;3.70;2.20;;;23.00;31.00;;;;;;5050822;28;20905;-69
2021/12/21 13:30:58;;;;;;;3.53;2.10;;;23.00;31.20;;;;;;5052393;28;20393;-69
2021/12/21 13:33:27;;;;;;;3.20;2.00;;;23.00;31.10;;;;;;5034702;28;20393;-68
2021/12/21 13:35:57;;;;;;;2.42;1.95;;;23.00;31.00;;;;;;5051856;28;20412;-68
2021/12/21 13:38:25;;;;;;;2.67;1.90;;;23.10;30.90;;;;;;5052786;28;20890;-69
2021/12/21 13:41:20;;;;;;;3.03;2.00;;;23.10;31.00;;;;;;5053554;28;20400;-69
2021/12/21 13:43:57;;;;;;;3.38;2.15;;;23.10;31.10;;;;;;5035632;28;20425;-68
2021/12/21 13:46:24;;;;;;;3.53;1.90;;;23.10;31.00;;;;;;5052720;28;20994;-68
2021/12/21 13:48:53;;;;;;;4.07;2.20;;;23.10;30.90;;;;;;5053821;28;20451;-68
2021/12/21 13:51:19;;;;;;;3.53;2.00;;;23.10;30.90;;;;;;5052993;28;20550;-69
2021/12/21 13:53:55;;;;;;;3.30;1.85;;;23.10;30.90;;;;;;5052739;28;20405;-69
2021/12/21 13:56:28;;;;;;;3.25;2.00;;;23.20;30.80;;;;;;5052165;28;20393;-68
2021/12/21 13:58:55;;;;;;;2.70;1.88;;;23.10;30.70;;;;;;5052987;28;20392;-69
2021/12/21 14:01:31;;;;;;;2.60;1.80;;;23.20;30.60;;;;;;5052755;28;20484;-67
2021/12/21 14:04:13;;;;;;;3.03;1.95;;;23.20;30.60;;;;;;5053323;28;20377;-69
2021/12/21 14:06:39;;;;;;;2.37;1.80;;;23.20;30.60;;;;;;5052552;28;20381;-69
2021/12/21 14:09:10;;;;;;;3.17;1.73;;;23.10;30.80;;;;;;5052725;28;20385;-69
2021/12/21 14:11:39;;;;;;;3.77;2.03;;;23.20;30.70;;;;;;5052721;28;20405;-69